الصفحة الرئيسية
METAR-TAF:

METAR-TAF

مطار :

جوهر بهرو, ماليزيا

دائرة عرض: 01-38N, خط طول: 103-40E, ارتفاع: 37 متر

مراقبة الطقس الحالي

تاريخ ووقت الإصدار 58 دقيقة قبل الساعة 22:00UTC
ريح 3 عقدة من الشمال/الشمال الغربي, الاتجاه يتراوح بين الغرب و الشرق/الشمال الشرقي
درجة الحرارة 24°درجة مئوية
الرطوبة 94%
ضغط 1007 hPa
الرؤية: 9000 متر
غيوم قليلة على ارتفاع 2200 قدم

METAR: WMKJ 252200Z 34003KT 280V060 9000 FEW022 24/23 Q1007

زمن: 06:58 (22:58 UTC)

توقعات

تاريخ ووقت الإصدار 5ساعات و 58 دقيقة قبل الساعة 17:00UTC
التوقعات صالحة من25 الساعة 18 UTC إلى 26 الساعة 18 UTC
ريح 3 عقدةمن اتجاهات متغيرة
الرؤية 10 كم أو أكثر
غيوم قليلة على ارتفاع 2200 قدم
مؤقت
من 26 الساعة 06 UTC إلى 26 الساعة 11 UTC
الرؤية: 4000 متر
غيوم قليلة على ارتفاع 1000 قدم
غيوم قليلة على ارتفاع 1700 قدم, مزنة ركامية.
غيوم متفرقة على ارتفاع 2000 قدم
عاصفة رعدية, مطر

TAF: WMKJ 251700Z 2518/2618 VRB03KT 9999 FEW022 TEMPO 2606/2611 4000 TSRA FEW010 FEW017CB SCT020

أرصاد الطقس والتوقعات من أكثر من 4000 مطار (تقارير الطقس للمطار METAR والتنبؤ بالطقس بالمطارTAF).

المحطات المتاحة هي النقط الصفراء والحمراء على الخريطة.

حرك المؤشر فوق النقطة لمعرفة اسم المحطة.

ثم انقر لمعرفة أرصاد وتوقعات الطقس.

لتغيير الخارطة: اضغط على الأزرار الخضراء مع رمز الصليب الأسود للتكبير. على الزر الأخضر مع شرطة للتصغير، أو على الأسهم الخضراء للخرائط المجاورة.


METAR-TAF: